createdAt,value
2022-10-19T00:01:56.855Z,103337.69
2022-10-19T00:04:24.307Z,103342.06
2022-10-19T00:06:53.254Z,103340.78
2022-10-19T00:09:20.603Z,103342.75
2022-10-19T00:11:51.240Z,103343.13
2022-10-19T00:14:21.248Z,103364.66
2022-10-19T00:16:51.359Z,103370.31
2022-10-19T00:19:20.842Z,103375.06
2022-10-19T00:21:48.593Z,103374.66
2022-10-19T00:24:17.962Z,103383.88
2022-10-19T00:26:45.296Z,103380.66
2022-10-19T00:29:14.407Z,103389.81
2022-10-19T00:31:42.191Z,103397.81
2022-10-19T00:34:09.531Z,103397.84
2022-10-19T00:36:38.805Z,103405.06
2022-10-19T00:39:07.770Z,103406.59
2022-10-19T00:41:37.724Z,103414.97
2022-10-19T00:44:07.910Z,103421.03
2022-10-19T00:46:37.274Z,103422.25
2022-10-19T00:49:10.019Z,103427.84
2022-10-19T00:51:42.555Z,103435.03
2022-10-19T00:54:11.376Z,103446.16
2022-10-19T00:56:42.685Z,103446.09
2022-10-19T00:59:12.029Z,103452.53
2022-10-19T01:01:39.337Z,103447.75
2022-10-19T01:04:06.597Z,103448.56
2022-10-19T01:06:35.379Z,103449.41
2022-10-19T01:09:02.683Z,103450.22
2022-10-19T01:11:42.297Z,103446.97
2022-10-19T01:14:27.660Z,103453.81
2022-10-19T01:17:06.623Z,103454.25
2022-10-19T01:20:03.866Z,103459.03
2022-10-19T01:22:46.512Z,103453.44
2022-10-19T01:25:22.997Z,103459.81
2022-10-19T01:28:19.485Z,103459.44
2022-10-19T01:30:58.747Z,103450.25
2022-10-19T01:33:40.391Z,103450.19
2022-10-19T01:36:20.991Z,103461.38
2022-10-19T01:38:54.533Z,103466.94
2022-10-19T01:41:29.943Z,103463.75
2022-10-19T01:44:01.368Z,103462.56
2022-10-19T01:46:36.447Z,103474.94
2022-10-19T01:49:11.156Z,103472.16
2022-10-19T01:51:45.539Z,103467.69
2022-10-19T01:54:15.835Z,103458.09
2022-10-19T01:56:46.387Z,103458.91
2022-10-19T01:59:16.233Z,103454.09
2022-10-19T02:01:47.588Z,103454.09
2022-10-19T02:04:18.824Z,103452.53
2022-10-19T02:06:46.239Z,103445.38
2022-10-19T02:09:13.544Z,103448.63
2022-10-19T02:11:41.827Z,103441.44
2022-10-19T02:14:15.266Z,103436.59
2022-10-19T02:16:48.900Z,103429.38
2022-10-19T02:19:17.819Z,103438.97
2022-10-19T02:21:45.513Z,103445.72
2022-10-19T02:24:12.728Z,103447.34
2022-10-19T02:26:40.870Z,103436.19
2022-10-19T02:29:10.107Z,103436.91
2022-10-19T02:31:38.168Z,103428.53
2022-10-19T02:34:07.372Z,103439.78
2022-10-19T02:36:34.860Z,103432.16
2022-10-19T02:39:02.389Z,103440.91
2022-10-19T02:41:35.051Z,103444.09
2022-10-19T02:44:07.525Z,103449.34
2022-10-19T02:49:15.261Z,103450.53
2022-10-19T02:51:58.136Z,103448.53
2022-10-19T02:54:25.567Z,103446.97
2022-10-19T02:56:52.780Z,103452.94
2022-10-19T02:59:20.111Z,103457.31
2022-10-19T03:01:47.376Z,103454.94
2022-10-19T03:04:16.184Z,103459.72
2022-10-19T03:06:43.619Z,103459.34
2022-10-19T03:09:10.913Z,103465.38
2022-10-19T03:11:38.815Z,103463.41
2022-10-19T03:14:06.162Z,103462.13
2022-10-19T03:16:33.387Z,103450.94
2022-10-19T03:19:00.633Z,103452.56
2022-10-19T03:21:29.691Z,103450.16
2022-10-19T03:23:56.936Z,103442.19
2022-10-19T03:26:24.195Z,103439.03
2022-10-19T03:28:51.445Z,103441.41
2022-10-19T03:31:19.384Z,103440.56
2022-10-19T03:33:46.865Z,103431.78
2022-10-19T03:36:21.135Z,103432.59
2022-10-19T03:38:52.104Z,103423.78
2022-10-19T03:41:19.796Z,103420.16
2022-10-19T03:43:47.391Z,103415.41
2022-10-19T03:46:15.004Z,103405.03
2022-10-19T03:48:42.518Z,103403.00
2022-10-19T03:51:11.719Z,103395.00
2022-10-19T03:53:41.006Z,103393.41
2022-10-19T03:56:12.523Z,103387.03
2022-10-19T03:58:41.013Z,103376.63
2022-10-19T04:01:10.521Z,103369.06
2022-10-19T04:03:38.132Z,103369.41
2022-10-19T04:06:07.605Z,103359.47
2022-10-19T04:08:35.801Z,103363.81
2022-10-19T04:11:05.516Z,103355.81
2022-10-19T04:13:35.289Z,103344.63
2022-10-19T04:16:03.078Z,103344.63
2022-10-19T04:18:30.294Z,103329.50
2022-10-19T04:20:58.145Z,103320.78
2022-10-19T04:23:27.791Z,103304.78
2022-10-19T04:25:59.640Z,103292.78
2022-10-19T04:28:26.942Z,103294.41
2022-10-19T04:30:55.690Z,103289.66
2022-10-19T04:33:23.444Z,103292.81
2022-10-19T04:35:50.712Z,103288.06
2022-10-19T04:38:17.973Z,103290.41
2022-10-19T04:40:45.224Z,103273.66
2022-10-19T04:43:12.605Z,103266.81
2022-10-19T04:45:39.804Z,103256.47
2022-10-19T04:48:08.414Z,103247.69
2022-10-19T04:50:35.712Z,103253.69
2022-10-19T04:53:02.961Z,103239.28
2022-10-19T04:55:30.172Z,103210.94
2022-10-19T04:57:57.485Z,103181.81
2022-10-19T05:00:24.766Z,103163.84
2022-10-19T05:02:51.988Z,103155.88
2022-10-19T05:05:20.607Z,103149.88
2022-10-19T05:07:49.222Z,103160.25
2022-10-19T05:10:16.719Z,103148.28
2022-10-19T05:12:43.923Z,103144.28
2022-10-19T05:15:11.286Z,103140.28
2022-10-19T05:17:38.608Z,103142.69
2022-10-19T05:20:06.991Z,103129.91
2022-10-19T05:22:35.591Z,103120.69
2022-10-19T05:25:02.999Z,103117.94
2022-10-19T05:27:30.187Z,103106.72
2022-10-19T05:29:57.505Z,103101.53
2022-10-19T05:32:24.763Z,103103.94
2022-10-19T05:34:52.080Z,103093.97
2022-10-19T05:37:19.413Z,103081.97
2022-10-19T05:39:48.134Z,103074.81
2022-10-19T05:42:15.344Z,103074.00
2022-10-19T05:44:42.659Z,103059.63
2022-10-19T05:47:09.994Z,103054.84
2022-10-19T05:49:37.263Z,103043.63
2022-10-19T05:52:04.839Z,103042.03
2022-10-19T05:54:32.158Z,103022.88
2022-10-19T05:57:00.846Z,103018.50
2022-10-19T05:59:28.055Z,103006.50
2022-10-19T06:01:55.443Z,103001.31
2022-10-19T06:04:22.809Z,102999.72
2022-10-19T06:06:50.111Z,103006.09
2022-10-19T06:09:17.340Z,103009.28
2022-10-19T06:11:44.968Z,103007.72
2022-10-19T06:14:15.132Z,103003.69
2022-10-19T06:16:42.753Z,103006.09
2022-10-19T06:19:09.974Z,103011.69
2022-10-19T06:21:39.561Z,103007.72
2022-10-19T06:24:11.329Z,103013.31
2022-10-19T06:26:38.931Z,103008.09
2022-10-19T06:29:06.129Z,103021.28
2022-10-19T06:31:36.058Z,103015.28
2022-10-19T06:34:04.062Z,103034.47
2022-10-19T06:36:32.271Z,103036.47
2022-10-19T06:39:00.077Z,103040.47
2022-10-19T06:41:28.076Z,103050.06
2022-10-19T06:43:56.025Z,103061.22
2022-10-19T06:46:24.877Z,103063.25
2022-10-19T06:48:55.127Z,103058.84
2022-10-19T06:51:23.221Z,103085.22
2022-10-19T06:53:52.851Z,103086.00
2022-10-19T06:56:23.680Z,103082.78
2022-10-19T06:58:50.980Z,103066.81
2022-10-19T07:01:18.564Z,103069.22
2022-10-19T07:03:45.846Z,103075.63
2022-10-19T07:06:14.526Z,103069.22
2022-10-19T07:08:43.300Z,103062.84
2022-10-19T07:11:12.532Z,103078.41
2022-10-19T07:13:39.831Z,103057.25
2022-10-19T07:16:09.435Z,103042.03
2022-10-19T07:18:38.009Z,103041.63
2022-10-19T07:21:07.988Z,103034.03
2022-10-19T07:23:38.239Z,103052.38
2022-10-19T07:26:07.445Z,103064.78
2022-10-19T07:28:35.032Z,103073.19
2022-10-19T07:31:06.242Z,103080.38
2022-10-19T07:33:33.720Z,103075.19
2022-10-19T07:36:02.028Z,103076.38
2022-10-19T07:38:31.129Z,103060.34
2022-10-19T07:41:05.785Z,103055.97
2022-10-19T07:43:33.248Z,103050.75
2022-10-19T07:46:02.407Z,103042.69
2022-10-19T07:48:29.633Z,103028.69
2022-10-19T07:50:56.905Z,103024.97
2022-10-19T07:53:24.569Z,103012.22
2022-10-19T07:55:51.856Z,102991.41
2022-10-19T07:58:20.543Z,102978.53
2022-10-19T08:00:47.881Z,102982.56
2022-10-19T08:06:03.629Z,102968.41
2022-10-19T08:08:31.579Z,102959.09
2022-10-19T08:11:06.827Z,102949.59
2022-10-19T08:13:35.620Z,102944.75
2022-10-19T08:16:03.207Z,102947.28
2022-10-19T08:21:02.803Z,102940.50
2022-10-19T08:23:30.031Z,102945.72
2022-10-19T08:25:57.984Z,102940.88
2022-10-19T08:28:25.296Z,102942.38
2022-10-19T08:30:53.950Z,102946.22
2022-10-19T08:33:21.114Z,102945.69
2022-10-19T08:35:48.312Z,102933.00
2022-10-19T08:38:15.480Z,102931.75
2022-10-19T08:40:44.984Z,102927.28
2022-10-19T08:43:17.891Z,102932.06
2022-10-19T08:45:53.034Z,102926.44
2022-10-19T08:48:28.499Z,102931.63
2022-10-19T08:50:58.349Z,102924.28
2022-10-19T08:53:33.019Z,102920.47
2022-10-19T08:56:22.151Z,102929.78
2022-10-19T08:59:12.645Z,102933.19
2022-10-19T09:01:44.789Z,102925.91
2022-10-19T09:04:20.439Z,102931.97
2022-10-19T09:06:59.624Z,102924.00
2022-10-19T09:09:29.877Z,102930.38
2022-10-19T09:12:03.145Z,102929.16
2022-10-19T09:14:38.478Z,102922.00
2022-10-19T09:17:15.241Z,102917.34
2022-10-19T09:19:45.642Z,102912.88
2022-10-19T09:22:19.775Z,102912.94
2022-10-19T09:24:50.977Z,102928.94
2022-10-19T09:27:22.287Z,102925.97
2022-10-19T09:29:53.657Z,102928.44
2022-10-19T09:32:25.348Z,102921.19
2022-10-19T09:34:56.660Z,102912.91
2022-10-19T09:37:26.575Z,102919.09
2022-10-19T09:39:55.800Z,102921.19
2022-10-19T09:42:26.024Z,102919.00
2022-10-19T09:44:54.915Z,102915.69
2022-10-19T09:47:36.545Z,102921.63
2022-10-19T09:50:24.554Z,102917.91
2022-10-19T09:52:53.156Z,102919.47
2022-10-19T09:55:29.417Z,102919.84
2022-10-19T09:58:02.678Z,102922.41
2022-10-19T10:00:40.214Z,102922.41
2022-10-19T10:03:07.913Z,102913.63
2022-10-19T10:05:38.427Z,102907.41
2022-10-19T10:08:14.167Z,102912.03
2022-10-19T10:10:45.359Z,102921.00
2022-10-19T10:13:17.545Z,102915.81
2022-10-19T10:15:49.102Z,102904.31
2022-10-19T10:18:18.490Z,102889.66
2022-10-19T10:21:03.877Z,102897.88
2022-10-19T10:23:34.450Z,102899.16
2022-10-19T10:26:02.685Z,102890.06
2022-10-19T10:28:31.008Z,102894.63
2022-10-19T10:31:04.668Z,102889.97
2022-10-19T10:33:45.450Z,102893.03
2022-10-19T10:36:14.524Z,102892.81
2022-10-19T10:38:45.883Z,102892.63
2022-10-19T10:41:15.527Z,102891.75
2022-10-19T10:46:24.220Z,102899.00
2022-10-19T10:48:58.335Z,102911.47
2022-10-19T10:51:34.546Z,102900.47
2022-10-19T10:54:19.331Z,102905.28
2022-10-19T10:57:06.262Z,102901.78
2022-10-19T10:59:43.180Z,102898.56
2022-10-19T11:02:31.003Z,102892.03
2022-10-19T11:05:03.713Z,102900.09
2022-10-19T11:07:35.985Z,102897.78
2022-10-19T11:10:11.396Z,102887.41
2022-10-19T11:12:43.839Z,102869.94
2022-10-19T11:15:21.057Z,102864.41
2022-10-19T11:18:05.363Z,102863.44
2022-10-19T11:20:34.639Z,102871.03
2022-10-19T11:23:12.301Z,102865.50
2022-10-19T11:25:50.887Z,102856.75
2022-10-19T11:28:29.007Z,102856.00
2022-10-19T11:31:05.308Z,102845.88
2022-10-19T11:33:44.234Z,102840.16
2022-10-19T11:36:24.495Z,102844.34
2022-10-19T11:39:08.910Z,102829.13
2022-10-19T11:41:45.434Z,102827.19
2022-10-19T11:44:26.650Z,102815.81
2022-10-19T11:47:08.481Z,102811.38
2022-10-19T11:49:50.819Z,102798.00
2022-10-19T11:52:29.065Z,102792.97
2022-10-19T11:55:12.933Z,102803.69
2022-10-19T11:57:49.445Z,102798.47
2022-10-19T12:00:39.233Z,102792.13
2022-10-19T12:03:30.589Z,102782.50
2022-10-19T12:06:05.524Z,102798.31
2022-10-19T12:08:46.577Z,102808.84
2022-10-19T12:11:27.121Z,102805.28
2022-10-19T12:13:59.643Z,102791.72
2022-10-19T12:16:34.240Z,102790.72
2022-10-19T12:19:04.479Z,102794.72
2022-10-19T12:21:36.362Z,102797.72
2022-10-19T12:24:10.953Z,102789.41
2022-10-19T12:26:40.924Z,102787.38
2022-10-19T12:29:15.772Z,102785.25
2022-10-19T12:31:44.505Z,102780.34
2022-10-19T12:34:25.465Z,102782.72
2022-10-19T12:36:59.565Z,102778.91
2022-10-19T12:39:35.045Z,102775.94
2022-10-19T12:42:13.403Z,102788.09
2022-10-19T12:44:58.789Z,102783.94
2022-10-19T12:47:26.747Z,102770.28
2022-10-19T12:49:55.169Z,102773.41
2022-10-19T12:52:44.666Z,102779.84
2022-10-19T12:55:29.161Z,102787.44
2022-10-19T12:58:02.144Z,102779.19
2022-10-19T13:00:31.653Z,102778.09
2022-10-19T13:03:03.418Z,102767.69
2022-10-19T13:05:32.147Z,102761.06
2022-10-19T13:08:02.222Z,102749.31
2022-10-19T13:10:31.886Z,102755.97
2022-10-19T13:13:03.315Z,102739.38
2022-10-19T13:15:57.688Z,102749.06
2022-10-19T13:19:04.276Z,102744.91
2022-10-19T13:22:07.013Z,102753.69
2022-10-19T13:24:36.793Z,102750.59
2022-10-19T13:27:36.405Z,102747.53
2022-10-19T13:30:26.310Z,102741.19
2022-10-19T13:32:53.566Z,102731.19
2022-10-19T13:35:24.012Z,102723.13
2022-10-19T13:38:20.001Z,102717.69
2022-10-19T13:40:59.845Z,102723.09
2022-10-19T13:43:30.876Z,102725.84
2022-10-19T13:46:06.041Z,102715.44
2022-10-19T13:48:44.441Z,102719.97
2022-10-19T13:51:24.737Z,102720.06
2022-10-19T13:54:02.967Z,102719.94
2022-10-19T13:56:50.657Z,102713.22
2022-10-19T13:59:43.371Z,102717.50
2022-10-19T14:02:37.391Z,102723.66
2022-10-19T14:05:19.261Z,102703.56
2022-10-19T14:07:55.689Z,102706.47
2022-10-19T14:10:28.308Z,102714.91
2022-10-19T14:13:02.004Z,102714.81
2022-10-19T14:15:31.461Z,102710.91
2022-10-19T14:18:03.681Z,102700.41
2022-10-19T14:20:35.537Z,102679.19
2022-10-19T14:23:18.312Z,102679.69
2022-10-19T14:25:50.962Z,102668.59
2022-10-19T14:28:18.261Z,102671.50
2022-10-19T14:30:54.673Z,102672.63
2022-10-19T14:33:23.981Z,102671.63
2022-10-19T14:35:52.432Z,102670.13
2022-10-19T14:38:23.912Z,102677.88
2022-10-19T14:40:51.111Z,102672.16
2022-10-19T14:43:21.416Z,102667.50
2022-10-19T14:46:11.816Z,102656.97
2022-10-19T14:48:42.763Z,102654.63
2022-10-19T14:51:27.590Z,102652.25
2022-10-19T14:53:58.995Z,102645.63
2022-10-19T14:56:32.973Z,102655.72
2022-10-19T14:59:04.804Z,102650.19
2022-10-19T15:01:32.381Z,102653.41
2022-10-19T15:04:01.834Z,102646.34
2022-10-19T15:06:33.250Z,102655.03
2022-10-19T15:09:03.810Z,102652.09
2022-10-19T15:11:36.461Z,102656.00
2022-10-19T15:14:08.229Z,102654.66
2022-10-19T15:16:43.990Z,102650.34
2022-10-19T15:19:27.521Z,102645.97
2022-10-19T15:22:14.735Z,102658.84
2022-10-19T15:24:55.290Z,102658.19
2022-10-19T15:27:29.929Z,102644.69
2022-10-19T15:29:59.705Z,102647.38
2022-10-19T15:32:31.525Z,102657.53
2022-10-19T15:35:00.293Z,102641.63
2022-10-19T15:37:27.640Z,102651.06
2022-10-19T15:39:55.137Z,102645.31
2022-10-19T15:42:35.990Z,102647.50
2022-10-19T15:45:04.384Z,102642.66
2022-10-19T15:47:31.741Z,102644.09
2022-10-19T15:50:02.126Z,102648.88
2022-10-19T15:52:32.213Z,102654.06
2022-10-19T15:55:00.948Z,102666.59
2022-10-19T15:57:30.412Z,102662.97
2022-10-19T16:00:00.163Z,102659.03
2022-10-19T16:02:27.528Z,102660.13
2022-10-19T16:04:55.295Z,102664.47
2022-10-19T16:07:27.714Z,102655.50
2022-10-19T16:09:54.963Z,102654.03
2022-10-19T16:12:22.816Z,102661.88
2022-10-19T16:14:50.076Z,102661.00
2022-10-19T16:17:17.662Z,102664.44
2022-10-19T16:19:45.802Z,102657.13
2022-10-19T16:22:14.029Z,102665.41
2022-10-19T16:24:43.007Z,102665.50
2022-10-19T16:27:10.692Z,102672.00
2022-10-19T16:29:37.951Z,102671.75
2022-10-19T16:32:05.574Z,102668.81
2022-10-19T16:34:32.756Z,102671.63
2022-10-19T16:37:02.651Z,102668.50
2022-10-19T16:39:33.100Z,102675.44
2022-10-19T16:42:01.783Z,102679.00
2022-10-19T16:44:29.060Z,102680.72
2022-10-19T16:46:57.111Z,102679.22
2022-10-19T16:49:24.637Z,102692.16
2022-10-19T16:51:54.807Z,102698.13
2022-10-19T16:54:25.436Z,102697.75
2022-10-19T16:56:52.890Z,102693.44
2022-10-19T16:59:21.809Z,102707.50
2022-10-19T17:01:49.099Z,102704.19
2022-10-19T17:04:17.287Z,102716.19
2022-10-19T17:06:44.713Z,102715.19
2022-10-19T17:09:40.242Z,102725.22
2022-10-19T17:11:59.235Z,102737.34
2022-10-19T17:14:27.886Z,102742.53
2022-10-19T17:16:55.432Z,102744.56
2022-10-19T17:19:22.690Z,102751.41
2022-10-19T17:21:50.119Z,102760.22
2022-10-19T17:24:22.085Z,102766.22
2022-10-19T17:26:50.739Z,102768.69
2022-10-19T17:29:18.841Z,102775.13
2022-10-19T17:31:47.980Z,102774.78
2022-10-19T17:34:15.701Z,102786.78
2022-10-19T17:36:44.350Z,102788.78
2022-10-19T17:39:13.732Z,102803.59
2022-10-19T17:41:41.005Z,102803.19
2022-10-19T17:44:08.214Z,102802.38
2022-10-19T17:46:36.131Z,102804.06
2022-10-19T17:49:05.257Z,102817.63
2022-10-19T17:51:34.423Z,102829.56
2022-10-19T17:54:04.176Z,102843.94
2022-10-19T17:56:31.636Z,102844.75
2022-10-19T17:58:59.030Z,102845.56
2022-10-19T18:01:27.222Z,102845.91
2022-10-19T18:03:54.560Z,102840.72
2022-10-19T18:06:24.953Z,102836.78
2022-10-19T18:08:53.773Z,102836.78
2022-10-19T18:11:23.137Z,102843.22
2022-10-19T18:13:51.549Z,102849.63
2022-10-19T18:16:21.277Z,102857.59
2022-10-19T18:18:50.513Z,102866.38
2022-10-19T18:21:20.723Z,102859.97
2022-10-19T18:23:49.314Z,102864.72
2022-10-19T18:26:19.135Z,102884.28
2022-10-19T18:28:46.653Z,102886.28
2022-10-19T18:31:15.905Z,102893.06
2022-10-19T18:33:43.211Z,102905.44
2022-10-19T18:36:11.009Z,102904.63
2022-10-19T18:38:39.046Z,102906.22
2022-10-19T18:41:08.946Z,102906.63
2022-10-19T18:43:36.189Z,102916.19
2022-10-19T18:46:03.614Z,102912.56
2022-10-19T18:48:31.110Z,102915.75
2022-10-19T18:51:02.465Z,102922.16
2022-10-19T18:53:30.847Z,102906.16
2022-10-19T18:55:58.417Z,102907.75
2022-10-19T18:58:27.239Z,102913.72
2022-10-19T19:01:03.046Z,102912.53
2022-10-19T19:03:30.273Z,102903.72
2022-10-19T19:05:59.455Z,102906.88
2022-10-19T19:08:27.203Z,102907.69
2022-10-19T19:10:55.346Z,102910.06
2022-10-19T19:13:23.108Z,102904.44
2022-10-19T19:15:59.016Z,102908.81
2022-10-19T19:18:26.580Z,102906.84
2022-10-19T19:20:53.786Z,102908.41
2022-10-19T19:23:21.113Z,102903.59
2022-10-19T19:25:48.379Z,102914.72
2022-10-19T19:28:15.635Z,102928.22
2022-10-19T19:30:44.322Z,102926.63
2022-10-19T19:33:13.406Z,102930.97
2022-10-19T19:35:43.742Z,102934.16
2022-10-19T19:38:11.501Z,102935.34
2022-10-19T19:40:39.644Z,102949.28
2022-10-19T19:43:07.023Z,102955.19
2022-10-19T19:45:34.399Z,102960.75
2022-10-19T19:48:01.994Z,102962.72
2022-10-19T19:50:30.728Z,102972.25
2022-10-19T19:52:59.232Z,102967.84
2022-10-19T19:55:26.624Z,102981.41
2022-10-19T19:57:54.060Z,102986.91
2022-10-19T20:00:22.059Z,102989.66
2022-10-19T20:02:51.862Z,102996.38
2022-10-19T20:05:19.628Z,103001.06
2022-10-19T20:07:48.362Z,103017.78
2022-10-19T20:10:15.718Z,103034.44
2022-10-19T20:12:43.329Z,103049.31
2022-10-19T20:15:12.274Z,103044.94
2022-10-19T20:17:40.239Z,103052.84
2022-10-19T20:20:09.685Z,103043.91
2022-10-19T20:22:37.688Z,103061.59
2022-10-19T20:25:07.331Z,103059.47
2022-10-19T20:27:35.180Z,103061.41
2022-10-19T20:30:03.033Z,103070.53
2022-10-19T20:32:30.908Z,103068.88
2022-10-19T20:34:58.255Z,103072.09
2022-10-19T20:37:25.530Z,103070.00
2022-10-19T20:39:52.793Z,103076.75
2022-10-19T20:42:21.366Z,103076.44
2022-10-19T20:44:48.884Z,103086.75
2022-10-19T20:47:16.083Z,103084.44
2022-10-19T20:49:43.268Z,103078.72
2022-10-19T20:52:10.608Z,103077.88
2022-10-19T20:54:38.073Z,103066.69
2022-10-19T20:57:05.463Z,103068.28
2022-10-19T20:59:34.326Z,103072.22
2022-10-19T21:02:03.797Z,103067.38
2022-10-19T21:04:31.264Z,103061.38
2022-10-19T21:06:58.489Z,103057.75
2022-10-19T21:09:25.751Z,103054.06
2022-10-19T21:11:53.008Z,103054.34
2022-10-19T21:14:26.922Z,103065.47
2022-10-19T21:16:58.561Z,103058.28
2022-10-19T21:19:27.392Z,103060.72
2022-10-19T21:21:57.162Z,103051.09
2022-10-19T21:24:26.897Z,103056.16
2022-10-19T21:26:54.782Z,103059.00
2022-10-19T21:29:22.303Z,103056.50
2022-10-19T21:31:52.351Z,103054.09
2022-10-19T21:34:22.771Z,103050.41
2022-10-19T21:36:50.415Z,103054.81
2022-10-19T21:39:18.295Z,103049.94
2022-10-19T21:41:46.431Z,103047.13
2022-10-19T21:44:15.021Z,103044.25
2022-10-19T21:46:42.310Z,103062.63
2022-10-19T21:49:10.992Z,103060.94
2022-10-19T21:51:44.006Z,103061.81
2022-10-19T21:54:13.442Z,103057.81
2022-10-19T21:56:40.757Z,103057.72
2022-10-19T21:59:08.447Z,103050.53
2022-10-19T22:01:38.747Z,103044.88
2022-10-19T22:04:12.585Z,103040.81
2022-10-19T22:06:42.526Z,103034.44
2022-10-19T22:09:12.389Z,103052.81
2022-10-19T22:11:39.766Z,103046.31
2022-10-19T22:14:07.056Z,103043.06
2022-10-19T22:16:34.633Z,103046.25
2022-10-19T22:19:02.039Z,103042.63
2022-10-19T22:21:31.320Z,103031.94
2022-10-19T22:24:01.523Z,103027.88
2022-10-19T22:26:31.198Z,103028.34
2022-10-19T22:29:00.302Z,103020.72
2022-10-19T22:31:29.804Z,103013.38
2022-10-19T22:33:57.321Z,103016.78
2022-10-19T22:36:24.573Z,103015.78
2022-10-19T22:38:51.811Z,103018.25
2022-10-19T22:41:20.432Z,103014.81
2022-10-19T22:43:47.689Z,103009.78
2022-10-19T22:46:14.993Z,103026.66
2022-10-19T22:48:42.240Z,103032.34
2022-10-19T22:51:09.620Z,103020.16
2022-10-19T22:53:36.962Z,103019.25
2022-10-19T22:56:04.956Z,103024.75
2022-10-19T22:58:33.733Z,103027.84
2022-10-19T23:01:02.682Z,103034.59
2022-10-19T23:03:30.128Z,103050.59
2022-10-19T23:05:57.549Z,103047.53
2022-10-19T23:08:24.959Z,103052.03
2022-10-19T23:10:52.409Z,103047.22
2022-10-19T23:13:19.665Z,103051.53
2022-10-19T23:15:48.299Z,103058.69
2022-10-19T23:18:15.738Z,103056.03
2022-10-19T23:20:43.563Z,103056.75
2022-10-19T23:23:10.834Z,103051.78
2022-10-19T23:25:38.139Z,103063.78
2022-10-19T23:28:05.523Z,103059.06
2022-10-19T23:30:32.842Z,103051.06
2022-10-19T23:33:01.440Z,103046.25
2022-10-19T23:35:28.793Z,103053.41
2022-10-19T23:37:56.065Z,103066.41
2022-10-19T23:40:23.333Z,103070.22
2022-10-19T23:42:50.562Z,103066.56
2022-10-19T23:45:17.797Z,103070.22
2022-10-19T23:47:45.056Z,103065.38
2022-10-19T23:50:13.701Z,103070.50
2022-10-19T23:52:40.969Z,103064.81
2022-10-19T23:55:09.409Z,103056.78
2022-10-19T23:57:37.132Z,103061.25
